首页
METAR-TAF:

METAR-TAF

机场 :

恩贾梅纳国际机场

恩賈梅納, 乍得

纬度: 12-08N, 经度: 015-02E, 海拔: 295米

当前天气观测

该预报发布于30分钟前的13:00 UTC
风速10节,风向北转西北,在北转西北东北之间变化
温度 34°C
湿度 10%
气压 1010 hPa
能見度: 8000

METAR: FTTJ 171300Z 34010KT 340V050 8000 NSC 34/M02 Q1010 NOSIG

时间: 14:30 (13:30 UTC)

预报

该预报发布于2小时和30分钟前的11:00 UTC
预报有效从17日的 12点(UTC)到 18日的 18点(UTC)
风速12节,风向
能見度: 6000
短暂存在
从 17日的 15点(UTC)到 17日的 21点(UTC)
能見度: 4000
浮尘
成为
从 18日的 00点(UTC)到 18日的 02点(UTC)
能見度: 2000
短暂存在
从 18日的 04点(UTC)到 18日的 10点(UTC)
能見度: 0800

TAF: FTTJ 171100Z 1712/1818 36012KT 6000 NSC TEMPO 1715/1721 4000 DU BECMG 1800/1802 2000 TEMPO 1804/1810 0800

超过4000个机场的气象观测和天气预报(METAR&TAF报告)。

可查询的气象台以黄色和红色小点在地图上表示。

将鼠标移到小点上方,可查看气象台名称。

然后点击查看天气观测和预报。

如需切换地图:点击带黑十字的绿色按钮放大地图;点击带横线的绿色按钮缩小地图;或者点击绿色箭头查看邻近地区的地图。


METAR-TAF: